sensor_id;sensor_type;location;lat;lon;timestamp;P1;durP1;ratioP1;P2;durP2;ratioP2
59424;SDS011;45231;44.826;20.312;2023-07-20T00:01:32;12.32;;;4.15;;
59424;SDS011;45231;44.826;20.312;2023-07-20T00:03:58;9.40;;;3.95;;
59424;SDS011;45231;44.826;20.312;2023-07-20T00:06:24;8.55;;;4.30;;
59424;SDS011;45231;44.826;20.312;2023-07-20T00:08:52;11.73;;;4.80;;
59424;SDS011;45231;44.826;20.312;2023-07-20T00:11:19;12.93;;;4.88;;
59424;SDS011;45231;44.826;20.312;2023-07-20T00:13:45;13.57;;;4.53;;
59424;SDS011;45231;44.826;20.312;2023-07-20T00:16:11;10.02;;;4.35;;
59424;SDS011;45231;44.826;20.312;2023-07-20T00:18:37;9.38;;;4.07;;
59424;SDS011;45231;44.826;20.312;2023-07-20T00:21:03;11.63;;;4.05;;
59424;SDS011;45231;44.826;20.312;2023-07-20T00:23:29;13.48;;;4.15;;
59424;SDS011;45231;44.826;20.312;2023-07-20T00:25:55;8.68;;;3.72;;
59424;SDS011;45231;44.826;20.312;2023-07-20T00:28:21;10.43;;;4.13;;
59424;SDS011;45231;44.826;20.312;2023-07-20T00:30:47;11.80;;;4.57;;
59424;SDS011;45231;44.826;20.312;2023-07-20T00:33:16;11.93;;;3.70;;
59424;SDS011;45231;44.826;20.312;2023-07-20T00:35:43;8.55;;;3.70;;
59424;SDS011;45231;44.826;20.312;2023-07-20T00:38:09;9.13;;;3.75;;
59424;SDS011;45231;44.826;20.312;2023-07-20T00:40:36;11.40;;;3.72;;
59424;SDS011;45231;44.826;20.312;2023-07-20T00:43:02;9.43;;;3.80;;
59424;SDS011;45231;44.826;20.312;2023-07-20T00:45:28;11.18;;;4.43;;
59424;SDS011;45231;44.826;20.312;2023-07-20T00:47:55;10.23;;;3.97;;
59424;SDS011;45231;44.826;20.312;2023-07-20T00:52:47;8.93;;;3.63;;
59424;SDS011;45231;44.826;20.312;2023-07-20T00:55:14;10.32;;;4.43;;
59424;SDS011;45231;44.826;20.312;2023-07-20T00:57:40;11.70;;;5.18;;
59424;SDS011;45231;44.826;20.312;2023-07-20T01:00:06;9.05;;;4.57;;
59424;SDS011;45231;44.826;20.312;2023-07-20T01:04:59;8.90;;;5.20;;
59424;SDS011;45231;44.826;20.312;2023-07-20T01:07:26;12.15;;;4.88;;
59424;SDS011;45231;44.826;20.312;2023-07-20T01:12:22;13.95;;;5.13;;
59424;SDS011;45231;44.826;20.312;2023-07-20T01:14:52;12.75;;;5.30;;
59424;SDS011;45231;44.826;20.312;2023-07-20T01:17:18;13.10;;;4.85;;
59424;SDS011;45231;44.826;20.312;2023-07-20T01:19:44;15.45;;;5.40;;
59424;SDS011;45231;44.826;20.312;2023-07-20T01:22:16;13.35;;;4.82;;
59424;SDS011;45231;44.826;20.312;2023-07-20T01:30:20;16.45;;;6.32;;
59424;SDS011;45231;44.826;20.312;2023-07-20T01:32:51;18.02;;;7.07;;
59424;SDS011;45231;44.826;20.312;2023-07-20T01:35:20;12.32;;;5.90;;
59424;SDS011;45231;44.826;20.312;2023-07-20T01:37:48;12.73;;;6.32;;
59424;SDS011;45231;44.826;20.312;2023-07-20T01:40:15;13.82;;;5.97;;
59424;SDS011;45231;44.826;20.312;2023-07-20T01:42:45;12.13;;;6.82;;
59424;SDS011;45231;44.826;20.312;2023-07-20T01:45:12;15.15;;;6.72;;
59424;SDS011;45231;44.826;20.312;2023-07-20T01:47:38;13.93;;;7.30;;
59424;SDS011;45231;44.826;20.312;2023-07-20T01:50:04;15.38;;;5.88;;
59424;SDS011;45231;44.826;20.312;2023-07-20T01:52:31;13.82;;;6.78;;
59424;SDS011;45231;44.826;20.312;2023-07-20T01:54:57;15.00;;;6.82;;
59424;SDS011;45231;44.826;20.312;2023-07-20T01:57:23;14.63;;;7.10;;
59424;SDS011;45231;44.826;20.312;2023-07-20T01:59:49;16.13;;;7.25;;
59424;SDS011;45231;44.826;20.312;2023-07-20T02:02:15;16.92;;;6.22;;
59424;SDS011;45231;44.826;20.312;2023-07-20T02:04:41;16.42;;;6.47;;
59424;SDS011;45231;44.826;20.312;2023-07-20T02:07:07;11.82;;;6.35;;
59424;SDS011;45231;44.826;20.312;2023-07-20T02:09:33;13.13;;;6.40;;
59424;SDS011;45231;44.826;20.312;2023-07-20T02:11:59;20.38;;;6.50;;
59424;SDS011;45231;44.826;20.312;2023-07-20T02:14:25;18.60;;;6.13;;
59424;SDS011;45231;44.826;20.312;2023-07-20T02:16:51;14.60;;;6.82;;
59424;SDS011;45231;44.826;20.312;2023-07-20T02:19:19;12.38;;;5.90;;
59424;SDS011;45231;44.826;20.312;2023-07-20T02:21:45;13.68;;;6.60;;
59424;SDS011;45231;44.826;20.312;2023-07-20T02:24:11;17.42;;;6.90;;
59424;SDS011;45231;44.826;20.312;2023-07-20T02:29:03;15.65;;;6.93;;
59424;SDS011;45231;44.826;20.312;2023-07-20T02:31:30;17.05;;;7.55;;
59424;SDS011;45231;44.826;20.312;2023-07-20T02:33:56;13.63;;;6.25;;
59424;SDS011;45231;44.826;20.312;2023-07-20T02:36:22;14.52;;;6.43;;
59424;SDS011;45231;44.826;20.312;2023-07-20T02:38:48;12.68;;;6.88;;
59424;SDS011;45231;44.826;20.312;2023-07-20T02:41:14;17.58;;;8.00;;
59424;SDS011;45231;44.826;20.312;2023-07-20T02:43:40;11.18;;;6.78;;
59424;SDS011;45231;44.826;20.312;2023-07-20T02:46:06;16.33;;;7.05;;
59424;SDS011;45231;44.826;20.312;2023-07-20T02:48:32;19.05;;;7.10;;
59424;SDS011;45231;44.826;20.312;2023-07-20T02:50:58;13.38;;;6.88;;
59424;SDS011;45231;44.826;20.312;2023-07-20T02:53:24;15.60;;;6.55;;
59424;SDS011;45231;44.826;20.312;2023-07-20T02:55:50;13.90;;;6.28;;
59424;SDS011;45231;44.826;20.312;2023-07-20T02:58:16;15.38;;;5.53;;
59424;SDS011;45231;44.826;20.312;2023-07-20T03:00:42;11.90;;;7.60;;
59424;SDS011;45231;44.826;20.312;2023-07-20T03:05:35;12.80;;;5.82;;
59424;SDS011;45231;44.826;20.312;2023-07-20T03:08:04;17.60;;;6.03;;
59424;SDS011;45231;44.826;20.312;2023-07-20T03:10:31;12.73;;;5.68;;
59424;SDS011;45231;44.826;20.312;2023-07-20T03:12:57;13.02;;;5.75;;
59424;SDS011;45231;44.826;20.312;2023-07-20T03:15:24;15.55;;;6.53;;
59424;SDS011;45231;44.826;20.312;2023-07-20T03:17:50;14.10;;;6.57;;
59424;SDS011;45231;44.826;20.312;2023-07-20T03:20:16;14.32;;;6.70;;
59424;SDS011;45231;44.826;20.312;2023-07-20T03:22:42;12.23;;;6.55;;
59424;SDS011;45231;44.826;20.312;2023-07-20T03:25:08;13.80;;;6.65;;
59424;SDS011;45231;44.826;20.312;2023-07-20T03:27:35;14.15;;;5.53;;
59424;SDS011;45231;44.826;20.312;2023-07-20T03:30:01;12.38;;;5.60;;
59424;SDS011;45231;44.826;20.312;2023-07-20T03:32:27;12.68;;;5.00;;
59424;SDS011;45231;44.826;20.312;2023-07-20T03:34:53;10.30;;;5.00;;
59424;SDS011;45231;44.826;20.312;2023-07-20T03:37:19;13.35;;;4.57;;
59424;SDS011;45231;44.826;20.312;2023-07-20T03:39:45;11.93;;;4.72;;
59424;SDS011;45231;44.826;20.312;2023-07-20T03:42:11;13.07;;;4.63;;
59424;SDS011;45231;44.826;20.312;2023-07-20T03:44:37;13.40;;;4.72;;
59424;SDS011;45231;44.826;20.312;2023-07-20T03:47:03;14.30;;;4.53;;
59424;SDS011;45231;44.826;20.312;2023-07-20T03:49:30;11.00;;;3.97;;
59424;SDS011;45231;44.826;20.312;2023-07-20T03:51:56;14.00;;;4.78;;
59424;SDS011;45231;44.826;20.312;2023-07-20T03:54:22;10.93;;;4.30;;
59424;SDS011;45231;44.826;20.312;2023-07-20T03:56:48;14.25;;;5.32;;
59424;SDS011;45231;44.826;20.312;2023-07-20T03:59:14;13.50;;;5.47;;
59424;SDS011;45231;44.826;20.312;2023-07-20T04:01:40;15.32;;;6.13;;
59424;SDS011;45231;44.826;20.312;2023-07-20T04:04:07;15.55;;;5.82;;
59424;SDS011;45231;44.826;20.312;2023-07-20T04:06:33;11.40;;;5.88;;
59424;SDS011;45231;44.826;20.312;2023-07-20T04:08:59;12.07;;;5.28;;
59424;SDS011;45231;44.826;20.312;2023-07-20T04:11:25;13.07;;;6.15;;
59424;SDS011;45231;44.826;20.312;2023-07-20T04:13:51;14.85;;;6.35;;
59424;SDS011;45231;44.826;20.312;2023-07-20T04:16:17;14.52;;;6.75;;
59424;SDS011;45231;44.826;20.312;2023-07-20T04:18:45;12.95;;;6.40;;
59424;SDS011;45231;44.826;20.312;2023-07-20T04:21:11;12.27;;;5.70;;
59424;SDS011;45231;44.826;20.312;2023-07-20T04:23:37;11.65;;;5.63;;
59424;SDS011;45231;44.826;20.312;2023-07-20T04:26:03;14.90;;;6.65;;
59424;SDS011;45231;44.826;20.312;2023-07-20T04:28:29;13.20;;;6.45;;
59424;SDS011;45231;44.826;20.312;2023-07-20T04:31:08;13.07;;;6.30;;
59424;SDS011;45231;44.826;20.312;2023-07-20T04:33:35;15.90;;;7.00;;
59424;SDS011;45231;44.826;20.312;2023-07-20T04:36:01;14.40;;;6.53;;
59424;SDS011;45231;44.826;20.312;2023-07-20T04:38:28;14.35;;;6.47;;
59424;SDS011;45231;44.826;20.312;2023-07-20T04:40:54;13.35;;;6.53;;
59424;SDS011;45231;44.826;20.312;2023-07-20T04:43:20;13.00;;;6.22;;
59424;SDS011;45231;44.826;20.312;2023-07-20T04:45:46;13.73;;;5.90;;
59424;SDS011;45231;44.826;20.312;2023-07-20T04:48:15;15.25;;;6.30;;
59424;SDS011;45231;44.826;20.312;2023-07-20T04:50:42;13.10;;;7.18;;
59424;SDS011;45231;44.826;20.312;2023-07-20T04:53:10;14.07;;;6.18;;
59424;SDS011;45231;44.826;20.312;2023-07-20T04:55:36;14.98;;;6.85;;
59424;SDS011;45231;44.826;20.312;2023-07-20T04:58:03;15.98;;;6.97;;
59424;SDS011;45231;44.826;20.312;2023-07-20T05:00:30;16.33;;;6.47;;
59424;SDS011;45231;44.826;20.312;2023-07-20T05:02:56;18.17;;;7.55;;
59424;SDS011;45231;44.826;20.312;2023-07-20T05:05:22;19.02;;;6.28;;
59424;SDS011;45231;44.826;20.312;2023-07-20T05:07:48;17.35;;;7.40;;
59424;SDS011;45231;44.826;20.312;2023-07-20T05:10:14;14.88;;;7.32;;
59424;SDS011;45231;44.826;20.312;2023-07-20T05:12:40;15.40;;;7.32;;
59424;SDS011;45231;44.826;20.312;2023-07-20T05:15:06;18.17;;;8.02;;
59424;SDS011;45231;44.826;20.312;2023-07-20T05:17:32;14.57;;;7.97;;
59424;SDS011;45231;44.826;20.312;2023-07-20T05:19:58;13.25;;;7.75;;
59424;SDS011;45231;44.826;20.312;2023-07-20T05:22:25;17.63;;;7.90;;
59424;SDS011;45231;44.826;20.312;2023-07-20T05:24:51;15.70;;;7.85;;
59424;SDS011;45231;44.826;20.312;2023-07-20T05:27:17;18.52;;;7.82;;
59424;SDS011;45231;44.826;20.312;2023-07-20T05:29:44;14.30;;;8.15;;
59424;SDS011;45231;44.826;20.312;2023-07-20T05:32:10;19.67;;;9.27;;
59424;SDS011;45231;44.826;20.312;2023-07-20T05:34:36;12.18;;;6.75;;
59424;SDS011;45231;44.826;20.312;2023-07-20T05:37:08;17.35;;;9.00;;
59424;SDS011;45231;44.826;20.312;2023-07-20T05:39:35;16.58;;;10.05;;
59424;SDS011;45231;44.826;20.312;2023-07-20T05:42:01;16.55;;;10.55;;
59424;SDS011;45231;44.826;20.312;2023-07-20T05:44:27;17.05;;;8.25;;
59424;SDS011;45231;44.826;20.312;2023-07-20T05:46:53;16.20;;;9.00;;
59424;SDS011;45231;44.826;20.312;2023-07-20T05:51:46;15.82;;;10.20;;
59424;SDS011;45231;44.826;20.312;2023-07-20T05:54:12;15.50;;;9.55;;
59424;SDS011;45231;44.826;20.312;2023-07-20T05:56:38;18.02;;;8.90;;
59424;SDS011;45231;44.826;20.312;2023-07-20T05:59:04;15.27;;;8.52;;
59424;SDS011;45231;44.826;20.312;2023-07-20T06:01:30;19.90;;;8.65;;
59424;SDS011;45231;44.826;20.312;2023-07-20T06:03:56;18.67;;;8.55;;
59424;SDS011;45231;44.826;20.312;2023-07-20T06:06:23;15.25;;;8.75;;
59424;SDS011;45231;44.826;20.312;2023-07-20T06:08:49;17.45;;;8.50;;
59424;SDS011;45231;44.826;20.312;2023-07-20T06:11:15;14.65;;;9.05;;
59424;SDS011;45231;44.826;20.312;2023-07-20T06:13:41;15.75;;;8.65;;
59424;SDS011;45231;44.826;20.312;2023-07-20T06:16:08;15.20;;;8.43;;
59424;SDS011;45231;44.826;20.312;2023-07-20T06:18:34;14.10;;;7.60;;
59424;SDS011;45231;44.826;20.312;2023-07-20T06:21:00;9.07;;;5.55;;
59424;SDS011;45231;44.826;20.312;2023-07-20T06:23:26;13.70;;;6.70;;
59424;SDS011;45231;44.826;20.312;2023-07-20T06:25:52;14.68;;;8.00;;
59424;SDS011;45231;44.826;20.312;2023-07-20T06:28:19;14.15;;;7.25;;
59424;SDS011;45231;44.826;20.312;2023-07-20T06:30:45;15.80;;;7.32;;
59424;SDS011;45231;44.826;20.312;2023-07-20T06:33:11;11.75;;;5.97;;
59424;SDS011;45231;44.826;20.312;2023-07-20T06:35:37;17.25;;;7.65;;
59424;SDS011;45231;44.826;20.312;2023-07-20T06:38:03;12.65;;;6.03;;
59424;SDS011;45231;44.826;20.312;2023-07-20T06:40:31;12.20;;;5.68;;
59424;SDS011;45231;44.826;20.312;2023-07-20T06:42:57;12.32;;;6.47;;
59424;SDS011;45231;44.826;20.312;2023-07-20T06:45:24;12.18;;;6.45;;
59424;SDS011;45231;44.826;20.312;2023-07-20T06:47:50;17.67;;;7.05;;
59424;SDS011;45231;44.826;20.312;2023-07-20T06:50:16;12.20;;;6.13;;
59424;SDS011;45231;44.826;20.312;2023-07-20T06:52:42;15.23;;;6.63;;
59424;SDS011;45231;44.826;20.312;2023-07-20T06:55:08;17.50;;;6.60;;
59424;SDS011;45231;44.826;20.312;2023-07-20T06:57:34;16.25;;;7.07;;
59424;SDS011;45231;44.826;20.312;2023-07-20T07:00:01;12.70;;;6.93;;
59424;SDS011;45231;44.826;20.312;2023-07-20T07:02:29;15.48;;;6.65;;
59424;SDS011;45231;44.826;20.312;2023-07-20T07:04:55;13.93;;;8.23;;
59424;SDS011;45231;44.826;20.312;2023-07-20T07:07:21;14.65;;;6.57;;
59424;SDS011;45231;44.826;20.312;2023-07-20T07:09:47;16.27;;;7.57;;
59424;SDS011;45231;44.826;20.312;2023-07-20T07:12:13;15.93;;;6.80;;
59424;SDS011;45231;44.826;20.312;2023-07-20T07:14:39;12.40;;;7.18;;
59424;SDS011;45231;44.826;20.312;2023-07-20T07:17:05;12.85;;;6.97;;
59424;SDS011;45231;44.826;20.312;2023-07-20T07:19:32;14.95;;;7.40;;
59424;SDS011;45231;44.826;20.312;2023-07-20T07:21:58;14.10;;;7.20;;
59424;SDS011;45231;44.826;20.312;2023-07-20T07:24:24;11.55;;;7.20;;
59424;SDS011;45231;44.826;20.312;2023-07-20T07:26:50;15.48;;;7.82;;
59424;SDS011;45231;44.826;20.312;2023-07-20T07:29:16;10.35;;;6.75;;
59424;SDS011;45231;44.826;20.312;2023-07-20T07:31:42;15.55;;;6.82;;
59424;SDS011;45231;44.826;20.312;2023-07-20T07:34:08;17.67;;;7.63;;
59424;SDS011;45231;44.826;20.312;2023-07-20T07:36:34;13.63;;;6.55;;
59424;SDS011;45231;44.826;20.312;2023-07-20T07:39:00;13.40;;;6.10;;
59424;SDS011;45231;44.826;20.312;2023-07-20T07:41:26;13.50;;;5.05;;
59424;SDS011;45231;44.826;20.312;2023-07-20T07:43:52;9.70;;;5.20;;
59424;SDS011;45231;44.826;20.312;2023-07-20T07:46:18;11.85;;;5.13;;
59424;SDS011;45231;44.826;20.312;2023-07-20T07:48:44;12.90;;;5.20;;
59424;SDS011;45231;44.826;20.312;2023-07-20T07:51:10;9.68;;;5.03;;
59424;SDS011;45231;44.826;20.312;2023-07-20T07:53:38;14.63;;;5.10;;
59424;SDS011;45231;44.826;20.312;2023-07-20T07:56:06;9.40;;;4.75;;
59424;SDS011;45231;44.826;20.312;2023-07-20T07:58:33;12.30;;;4.82;;
59424;SDS011;45231;44.826;20.312;2023-07-20T08:03:25;10.50;;;4.82;;
59424;SDS011;45231;44.826;20.312;2023-07-20T08:05:53;9.60;;;4.38;;
59424;SDS011;45231;44.826;20.312;2023-07-20T08:08:25;9.45;;;4.60;;
59424;SDS011;45231;44.826;20.312;2023-07-20T08:10:54;9.63;;;4.13;;
59424;SDS011;45231;44.826;20.312;2023-07-20T08:13:20;8.85;;;4.45;;
59424;SDS011;45231;44.826;20.312;2023-07-20T08:15:48;10.77;;;4.15;;
59424;SDS011;45231;44.826;20.312;2023-07-20T08:18:15;9.70;;;4.15;;
59424;SDS011;45231;44.826;20.312;2023-07-20T08:20:44;10.93;;;3.60;;
59424;SDS011;45231;44.826;20.312;2023-07-20T08:23:11;8.77;;;4.13;;
59424;SDS011;45231;44.826;20.312;2023-07-20T08:25:37;9.30;;;3.63;;
59424;SDS011;45231;44.826;20.312;2023-07-20T08:28:04;8.25;;;3.95;;
59424;SDS011;45231;44.826;20.312;2023-07-20T08:30:43;9.98;;;3.63;;
59424;SDS011;45231;44.826;20.312;2023-07-20T08:33:27;10.40;;;3.63;;
59424;SDS011;45231;44.826;20.312;2023-07-20T08:35:58;7.88;;;3.72;;
59424;SDS011;45231;44.826;20.312;2023-07-20T08:38:24;6.93;;;3.72;;
59424;SDS011;45231;44.826;20.312;2023-07-20T08:40:51;8.43;;;3.70;;
59424;SDS011;45231;44.826;20.312;2023-07-20T08:43:19;8.82;;;3.72;;
59424;SDS011;45231;44.826;20.312;2023-07-20T08:45:46;10.68;;;3.67;;
59424;SDS011;45231;44.826;20.312;2023-07-20T08:48:12;8.73;;;3.78;;
59424;SDS011;45231;44.826;20.312;2023-07-20T08:50:39;8.13;;;3.33;;
59424;SDS011;45231;44.826;20.312;2023-07-20T08:53:05;8.13;;;3.72;;
59424;SDS011;45231;44.826;20.312;2023-07-20T08:55:32;7.15;;;3.60;;
59424;SDS011;45231;44.826;20.312;2023-07-20T08:57:59;9.35;;;3.45;;
59424;SDS011;45231;44.826;20.312;2023-07-20T09:00:26;9.27;;;3.20;;
59424;SDS011;45231;44.826;20.312;2023-07-20T09:02:55;6.97;;;3.38;;
59424;SDS011;45231;44.826;20.312;2023-07-20T09:05:22;6.18;;;2.92;;
59424;SDS011;45231;44.826;20.312;2023-07-20T09:07:52;8.30;;;3.10;;
59424;SDS011;45231;44.826;20.312;2023-07-20T09:10:20;12.13;;;3.55;;
59424;SDS011;45231;44.826;20.312;2023-07-20T09:12:46;6.47;;;2.90;;
59424;SDS011;45231;44.826;20.312;2023-07-20T09:15:12;7.88;;;3.03;;
59424;SDS011;45231;44.826;20.312;2023-07-20T09:17:38;11.10;;;2.88;;
59424;SDS011;45231;44.826;20.312;2023-07-20T09:20:05;10.23;;;2.92;;
59424;SDS011;45231;44.826;20.312;2023-07-20T09:22:35;6.60;;;2.60;;
59424;SDS011;45231;44.826;20.312;2023-07-20T09:25:05;7.75;;;3.10;;
59424;SDS011;45231;44.826;20.312;2023-07-20T09:27:35;6.82;;;3.53;;
59424;SDS011;45231;44.826;20.312;2023-07-20T09:30:02;6.13;;;2.70;;
59424;SDS011;45231;44.826;20.312;2023-07-20T09:32:28;7.68;;;2.63;;
59424;SDS011;45231;44.826;20.312;2023-07-20T09:34:54;7.30;;;2.47;;
59424;SDS011;45231;44.826;20.312;2023-07-20T09:37:21;6.28;;;2.50;;
59424;SDS011;45231;44.826;20.312;2023-07-20T09:39:52;8.98;;;2.60;;
59424;SDS011;45231;44.826;20.312;2023-07-20T09:42:19;7.13;;;3.00;;
59424;SDS011;45231;44.826;20.312;2023-07-20T09:44:45;8.43;;;3.20;;
59424;SDS011;45231;44.826;20.312;2023-07-20T09:47:12;6.82;;;2.70;;
59424;SDS011;45231;44.826;20.312;2023-07-20T09:49:41;8.55;;;2.55;;
59424;SDS011;45231;44.826;20.312;2023-07-20T09:52:08;6.53;;;2.95;;
59424;SDS011;45231;44.826;20.312;2023-07-20T09:54:35;8.35;;;2.70;;
59424;SDS011;45231;44.826;20.312;2023-07-20T09:57:03;6.15;;;2.65;;
59424;SDS011;45231;44.826;20.312;2023-07-20T09:59:29;6.40;;;2.60;;
59424;SDS011;45231;44.826;20.312;2023-07-20T10:01:57;6.97;;;2.88;;
59424;SDS011;45231;44.826;20.312;2023-07-20T10:04:24;5.68;;;2.83;;
59424;SDS011;45231;44.826;20.312;2023-07-20T10:06:51;7.70;;;2.72;;
59424;SDS011;45231;44.826;20.312;2023-07-20T10:09:18;6.55;;;2.88;;
59424;SDS011;45231;44.826;20.312;2023-07-20T10:11:46;6.95;;;3.00;;
59424;SDS011;45231;44.826;20.312;2023-07-20T10:14:16;7.80;;;2.70;;
59424;SDS011;45231;44.826;20.312;2023-07-20T10:16:46;7.50;;;3.00;;
59424;SDS011;45231;44.826;20.312;2023-07-20T10:19:31;9.13;;;2.97;;
59424;SDS011;45231;44.826;20.312;2023-07-20T10:22:00;8.60;;;2.80;;
59424;SDS011;45231;44.826;20.312;2023-07-20T10:24:27;8.95;;;2.88;;
59424;SDS011;45231;44.826;20.312;2023-07-20T10:26:55;6.88;;;2.55;;
59424;SDS011;45231;44.826;20.312;2023-07-20T10:29:21;6.13;;;2.47;;
59424;SDS011;45231;44.826;20.312;2023-07-20T10:31:48;7.18;;;2.70;;
59424;SDS011;45231;44.826;20.312;2023-07-20T10:34:14;7.82;;;2.92;;
59424;SDS011;45231;44.826;20.312;2023-07-20T10:36:44;7.45;;;2.88;;
59424;SDS011;45231;44.826;20.312;2023-07-20T10:39:32;7.90;;;3.00;;
59424;SDS011;45231;44.826;20.312;2023-07-20T10:42:09;8.10;;;3.30;;
59424;SDS011;45231;44.826;20.312;2023-07-20T10:44:41;8.02;;;3.10;;
59424;SDS011;45231;44.826;20.312;2023-07-20T10:47:10;7.20;;;2.83;;
59424;SDS011;45231;44.826;20.312;2023-07-20T10:49:57;9.40;;;3.13;;
59424;SDS011;45231;44.826;20.312;2023-07-20T10:52:23;6.70;;;3.28;;
59424;SDS011;45231;44.826;20.312;2023-07-20T10:54:49;5.95;;;3.15;;
59424;SDS011;45231;44.826;20.312;2023-07-20T10:57:21;7.80;;;2.85;;
59424;SDS011;45231;44.826;20.312;2023-07-20T10:59:47;7.63;;;3.40;;
59424;SDS011;45231;44.826;20.312;2023-07-20T11:02:17;8.93;;;3.42;;
59424;SDS011;45231;44.826;20.312;2023-07-20T11:04:44;6.20;;;3.30;;
59424;SDS011;45231;44.826;20.312;2023-07-20T11:07:14;7.65;;;3.70;;
59424;SDS011;45231;44.826;20.312;2023-07-20T11:09:42;8.77;;;3.17;;
59424;SDS011;45231;44.826;20.312;2023-07-20T11:14:57;7.18;;;3.50;;
59424;SDS011;45231;44.826;20.312;2023-07-20T11:17:30;11.10;;;3.80;;
59424;SDS011;45231;44.826;20.312;2023-07-20T11:19:57;7.80;;;3.72;;
59424;SDS011;45231;44.826;20.312;2023-07-20T11:22:25;7.53;;;3.60;;
59424;SDS011;45231;44.826;20.312;2023-07-20T11:24:55;8.95;;;3.45;;
59424;SDS011;45231;44.826;20.312;2023-07-20T11:27:21;8.40;;;3.55;;
59424;SDS011;45231;44.826;20.312;2023-07-20T11:29:50;7.22;;;3.40;;
59424;SDS011;45231;44.826;20.312;2023-07-20T11:32:22;8.25;;;3.35;;
59424;SDS011;45231;44.826;20.312;2023-07-20T11:34:49;7.10;;;3.20;;
59424;SDS011;45231;44.826;20.312;2023-07-20T11:37:16;8.57;;;3.40;;
59424;SDS011;45231;44.826;20.312;2023-07-20T11:39:43;6.90;;;3.80;;
59424;SDS011;45231;44.826;20.312;2023-07-20T11:42:09;8.73;;;3.63;;
59424;SDS011;45231;44.826;20.312;2023-07-20T11:44:35;7.43;;;3.50;;
59424;SDS011;45231;44.826;20.312;2023-07-20T11:47:06;8.82;;;3.30;;
59424;SDS011;45231;44.826;20.312;2023-07-20T11:49:35;9.00;;;3.83;;
59424;SDS011;45231;44.826;20.312;2023-07-20T11:52:02;10.13;;;3.70;;
59424;SDS011;45231;44.826;20.312;2023-07-20T11:54:29;5.82;;;3.30;;
59424;SDS011;45231;44.826;20.312;2023-07-20T11:56:56;8.23;;;3.42;;
59424;SDS011;45231;44.826;20.312;2023-07-20T11:59:22;9.10;;;3.67;;
59424;SDS011;45231;44.826;20.312;2023-07-20T12:01:48;7.20;;;3.45;;
59424;SDS011;45231;44.826;20.312;2023-07-20T12:04:14;9.18;;;3.67;;
59424;SDS011;45231;44.826;20.312;2023-07-20T12:06:41;9.23;;;3.42;;
59424;SDS011;45231;44.826;20.312;2023-07-20T12:09:07;8.27;;;3.30;;
59424;SDS011;45231;44.826;20.312;2023-07-20T12:11:39;9.15;;;3.33;;
59424;SDS011;45231;44.826;20.312;2023-07-20T12:14:08;7.03;;;3.20;;
59424;SDS011;45231;44.826;20.312;2023-07-20T12:16:35;7.97;;;3.28;;
59424;SDS011;45231;44.826;20.312;2023-07-20T12:19:04;8.10;;;3.13;;
59424;SDS011;45231;44.826;20.312;2023-07-20T12:21:30;6.82;;;3.25;;
59424;SDS011;45231;44.826;20.312;2023-07-20T12:23:57;6.22;;;3.42;;
59424;SDS011;45231;44.826;20.312;2023-07-20T12:26:23;7.45;;;3.60;;
59424;SDS011;45231;44.826;20.312;2023-07-20T12:28:50;8.60;;;3.38;;
59424;SDS011;45231;44.826;20.312;2023-07-20T12:31:16;7.22;;;3.83;;
59424;SDS011;45231;44.826;20.312;2023-07-20T12:33:42;8.90;;;3.17;;
59424;SDS011;45231;44.826;20.312;2023-07-20T12:36:09;6.43;;;3.15;;
59424;SDS011;45231;44.826;20.312;2023-07-20T12:38:35;6.32;;;3.33;;
59424;SDS011;45231;44.826;20.312;2023-07-20T12:41:01;6.63;;;3.08;;
59424;SDS011;45231;44.826;20.312;2023-07-20T12:43:28;6.15;;;2.75;;
59424;SDS011;45231;44.826;20.312;2023-07-20T12:45:54;6.63;;;2.83;;
59424;SDS011;45231;44.826;20.312;2023-07-20T12:48:21;8.40;;;3.00;;
59424;SDS011;45231;44.826;20.312;2023-07-20T12:50:47;8.85;;;2.90;;
59424;SDS011;45231;44.826;20.312;2023-07-20T12:53:13;17.92;;;3.50;;
59424;SDS011;45231;44.826;20.312;2023-07-20T12:55:39;17.40;;;3.42;;
59424;SDS011;45231;44.826;20.312;2023-07-20T12:58:06;11.70;;;3.38;;
59424;SDS011;45231;44.826;20.312;2023-07-20T13:00:33;8.50;;;2.85;;
59424;SDS011;45231;44.826;20.312;2023-07-20T13:02:59;8.75;;;3.00;;
59424;SDS011;45231;44.826;20.312;2023-07-20T13:05:29;6.93;;;2.97;;
59424;SDS011;45231;44.826;20.312;2023-07-20T13:07:56;8.20;;;3.08;;
59424;SDS011;45231;44.826;20.312;2023-07-20T13:10:23;7.22;;;3.22;;
59424;SDS011;45231;44.826;20.312;2023-07-20T13:12:49;8.93;;;3.20;;
59424;SDS011;45231;44.826;20.312;2023-07-20T13:15:16;8.25;;;3.80;;
59424;SDS011;45231;44.826;20.312;2023-07-20T13:17:42;9.32;;;3.22;;
59424;SDS011;45231;44.826;20.312;2023-07-20T13:20:09;8.30;;;2.92;;
59424;SDS011;45231;44.826;20.312;2023-07-20T13:22:39;6.78;;;2.90;;
59424;SDS011;45231;44.826;20.312;2023-07-20T13:25:05;6.45;;;3.30;;
59424;SDS011;45231;44.826;20.312;2023-07-20T13:27:32;7.38;;;3.47;;
59424;SDS011;45231;44.826;20.312;2023-07-20T13:29:58;6.93;;;3.08;;
59424;SDS011;45231;44.826;20.312;2023-07-20T13:32:26;10.02;;;3.05;;
59424;SDS011;45231;44.826;20.312;2023-07-20T13:34:52;6.85;;;3.10;;
59424;SDS011;45231;44.826;20.312;2023-07-20T13:37:18;11.48;;;2.95;;
59424;SDS011;45231;44.826;20.312;2023-07-20T13:39:44;9.75;;;2.95;;
59424;SDS011;45231;44.826;20.312;2023-07-20T13:42:10;7.50;;;2.85;;
59424;SDS011;45231;44.826;20.312;2023-07-20T13:44:37;8.48;;;3.15;;
59424;SDS011;45231;44.826;20.312;2023-07-20T13:47:04;6.07;;;2.60;;
59424;SDS011;45231;44.826;20.312;2023-07-20T13:49:33;9.35;;;3.00;;
59424;SDS011;45231;44.826;20.312;2023-07-20T13:51:59;7.22;;;2.97;;
59424;SDS011;45231;44.826;20.312;2023-07-20T13:54:25;7.60;;;3.20;;
59424;SDS011;45231;44.826;20.312;2023-07-20T13:56:51;9.10;;;2.80;;
59424;SDS011;45231;44.826;20.312;2023-07-20T13:59:17;6.15;;;2.92;;
59424;SDS011;45231;44.826;20.312;2023-07-20T14:01:44;6.20;;;3.00;;
59424;SDS011;45231;44.826;20.312;2023-07-20T14:04:11;9.05;;;3.35;;
59424;SDS011;45231;44.826;20.312;2023-07-20T14:06:37;6.50;;;2.90;;
59424;SDS011;45231;44.826;20.312;2023-07-20T14:09:03;9.43;;;3.30;;
59424;SDS011;45231;44.826;20.312;2023-07-20T14:11:29;8.38;;;3.08;;
59424;SDS011;45231;44.826;20.312;2023-07-20T14:13:55;6.80;;;2.80;;
59424;SDS011;45231;44.826;20.312;2023-07-20T14:16:23;5.95;;;2.80;;
59424;SDS011;45231;44.826;20.312;2023-07-20T14:18:49;8.15;;;3.50;;
59424;SDS011;45231;44.826;20.312;2023-07-20T14:21:20;6.70;;;2.90;;
59424;SDS011;45231;44.826;20.312;2023-07-20T14:23:47;10.25;;;3.10;;
59424;SDS011;45231;44.826;20.312;2023-07-20T14:26:13;6.03;;;3.13;;
59424;SDS011;45231;44.826;20.312;2023-07-20T14:28:39;10.77;;;3.40;;
59424;SDS011;45231;44.826;20.312;2023-07-20T14:31:05;7.63;;;3.03;;
59424;SDS011;45231;44.826;20.312;2023-07-20T14:33:32;7.35;;;3.20;;
59424;SDS011;45231;44.826;20.312;2023-07-20T14:35:58;6.55;;;3.15;;
59424;SDS011;45231;44.826;20.312;2023-07-20T14:38:26;5.70;;;2.95;;
59424;SDS011;45231;44.826;20.312;2023-07-20T14:40:52;7.55;;;2.90;;
59424;SDS011;45231;44.826;20.312;2023-07-20T14:43:19;7.07;;;3.20;;
59424;SDS011;45231;44.826;20.312;2023-07-20T14:45:45;6.80;;;3.00;;
59424;SDS011;45231;44.826;20.312;2023-07-20T14:48:11;7.60;;;3.38;;
59424;SDS011;45231;44.826;20.312;2023-07-20T14:50:37;8.27;;;3.35;;
59424;SDS011;45231;44.826;20.312;2023-07-20T14:53:03;9.52;;;3.60;;